Hauptseite
METAR-TAF:

METAR-TAF

Flughäfen :

Flughafen Stockholm/Bromma

Stockholm, Schweden

Breite: 59-21N, Länge: 017-57E, Höhe: 14 m

Beobachtung

Neuester Wetterbericht von vor 39 Minuten, um 17:50 UTC
Wind 13 kt aus Ost
Temperatur 19°C
Luftfeuchtigkeit 60%
Luftdruck 1021 hPa
Sichtweite 10 km oder mehr
keine Wolken unter 1500 m und keine Kumulonimbus oder Gewitterwolken

METAR: ESSB 231750Z 10013KT CAVOK 19/11 Q1021

Zeit: 20:29 (18:29 UTC)

Prognose

Neuester Wetterbericht von vor 59 Minuten, um 17:30 UTC
Gültige Prognose vom 23 um 18 UTC bis 23 um 21 UTC
Wind 12 kt aus Ost
Sichtweite 10 km oder mehr
keine Wolken unter 1500 m und keine Kumulonimbus oder Gewitterwolken

TAF: ESSB 231730Z 2318/2321 10012KT CAVOK

Wetterbeobachtungen und Prognosen von mehr als 4000 Flughäfen (METAR und TAF Bericht).

Die verfügbaren Stationen werden durch gelbe und rote Markierungen auf der Karte dargestellt.

Führen Sie die Maus auf sie, um den Namen der Station zu sehen.

Darauf klicken, um die Beobachtung von Wetterbeobachtungen und Prognosen zu sehen.

Um die Karte zu ändern : klicken Sie auf den grünen Tasten mit einem schwarzen Kreuz Zum Vergrößern, auf den grünen Button mit einem Gedankenstrich zu verkleinern, oder auf die grünen Pfeile für benachbarte Karten.


METAR-TAF: